Time;durP1;ratioP1;P1;durP2;ratioP2;P2;SDS_P1;SDS_P2;PMS_P1;PMS_P2;Temp;Humidity;BMP_temperature;BMP_pressure;BME280_temperature;BME280_humidity;BME280_pressure;Samples;Min_cycle;Max_cycle;Signal;HPM_P1;HPM_P2
2021/04/21 00:00:14;;;;;;;6.53;5.43;;;;;;;;;;6064591;29;20068;-73
2021/04/21 00:03:16;;;;;;;10.15;5.85;;;;;;;;;;6069232;29;20054;-74
2021/04/21 00:06:19;;;;;;;7.93;5.78;;;;;;;;;;6064522;29;20052;-73
2021/04/21 00:09:22;;;;;;;8.02;5.43;;;;;;;;;;6066844;29;20045;-74
2021/04/21 00:12:23;;;;;;;8.23;5.03;;;;;;;;;;6071277;29;20052;-73
2021/04/21 00:15:25;;;;;;;7.75;5.85;;;;;;;;;;6072080;29;20571;-73
2021/04/21 00:18:27;;;;;;;11.35;5.90;;;;;;;;;;6072366;29;20056;-73
2021/04/21 00:21:30;;;;;;;7.45;5.18;;;;;;;;;;6075061;29;20520;-73
2021/04/21 00:24:32;;;;;;;6.45;5.47;;;;;;;;;;6074496;29;20068;-73
2021/04/21 00:27:34;;;;;;;8.02;5.22;;;;;;;;;;6067141;29;20123;-74
2021/04/21 00:30:36;;;;;;;8.32;5.30;;;;;;;;;;6072359;29;20055;-73
2021/04/21 00:33:38;;;;;;;7.93;4.95;;;;;;;;;;6070601;29;20048;-74
2021/04/21 00:36:42;;;;;;;9.40;5.22;;;;;;;;;;6067809;29;20064;-73
2021/04/21 00:39:44;;;;;;;7.75;5.00;;;;;;;;;;6067727;29;20069;-73
2021/04/21 00:42:53;;;;;;;8.35;5.80;;;;;;;;;;6082499;29;20048;-73
2021/04/21 00:46:03;;;;;;;7.55;5.43;;;;;;;;;;6081810;29;20065;-73
2021/04/21 00:49:09;;;;;;;7.18;5.28;;;;;;;;;;6069710;29;20057;-73
2021/04/21 00:52:15;;;;;;;6.30;5.38;;;;;;;;;;6073740;29;20053;-74
2021/04/21 00:55:23;;;;;;;9.02;5.57;;;;;;;;;;6073304;29;20055;-73
2021/04/21 00:58:30;;;;;;;7.32;5.53;;;;;;;;;;6071322;29;20448;-73
2021/04/21 01:04:43;;;;;;;7.75;5.50;;;;;;;;;;6208703;23;20077;-71
2021/04/21 01:07:46;;;;;;;6.82;5.82;;;;;;;;;;6093557;29;20634;-70
2021/04/21 01:10:50;;;;;;;6.43;5.25;;;;;;;;;;6096172;29;20055;-71
2021/04/21 01:13:52;;;;;;;;;;;;;;;;;;6094845;29;20085;-73
2021/04/21 01:16:55;;;;;;;7.72;5.07;;;;;;;;;;6094554;29;19974;-72
2021/04/21 01:20:09;;;;;;;6.20;5.10;;;;;;;;;;6092743;29;20054;-70
2021/04/21 01:23:37;;;;;;;6.57;5.15;;;;;;;;;;6085636;29;20044;-71
2021/04/21 01:26:54;;;;;;;7.18;4.90;;;;;;;;;;6096700;29;20056;-70
2021/04/21 01:29:56;;;;;;;6.60;4.97;;;;;;;;;;6091036;29;20064;-72
2021/04/21 01:33:14;;;;;;;7.40;5.30;;;;;;;;;;6094509;29;20500;-72
2021/04/21 01:36:17;;;;;;;8.15;5.32;;;;;;;;;;6093613;29;20055;-68
2021/04/21 01:39:18;;;;;;;7.05;5.05;;;;;;;;;;6088713;29;20423;-68
2021/04/21 01:42:20;;;;;;;6.38;5.07;;;;;;;;;;6089288;29;20135;-69
2021/04/21 01:45:25;;;;;;;7.60;5.63;;;;;;;;;;6089288;29;20044;-68
2021/04/21 01:48:27;;;;;;;6.75;4.65;;;;;;;;;;6091329;29;20135;-69
2021/04/21 01:51:32;;;;;;;8.98;5.07;;;;;;;;;;6085283;29;20460;-71
2021/04/21 01:54:34;;;;;;;7.40;5.20;;;;;;;;;;6085347;29;20055;-70
2021/04/21 01:57:41;;;;;;;7.53;5.05;;;;;;;;;;6087080;29;20082;-70
2021/04/21 02:00:46;;;;;;;8.18;5.60;;;;;;;;;;6087547;29;20052;-70
2021/04/21 02:03:50;;;;;;;8.23;5.70;;;;;;;;;;6091552;29;20199;-70
2021/04/21 02:07:00;;;;;;;8.35;5.45;;;;;;;;;;6092528;29;20064;-70
2021/04/21 02:10:13;;;;;;;8.43;5.30;;;;;;;;;;6089518;29;20092;-70
2021/04/21 02:13:26;;;;;;;7.25;4.57;;;;;;;;;;6086934;29;20424;-70
2021/04/21 02:16:35;;;;;;;9.38;5.57;;;;;;;;;;6089275;29;20495;-71
2021/04/21 02:19:44;;;;;;;6.75;4.95;;;;;;;;;;6085222;29;20135;-73
2021/04/21 02:22:48;;;;;;;6.43;4.97;;;;;;;;;;6086303;29;20050;-71
2021/04/21 02:26:02;;;;;;;8.15;5.10;;;;;;;;;;6086101;29;20116;-71
2021/04/21 02:29:11;;;;;;;6.13;4.85;;;;;;;;;;6088827;29;20056;-71
2021/04/21 02:32:18;;;;;;;6.80;4.95;;;;;;;;;;6088999;29;20112;-71
2021/04/21 02:35:22;;;;;;;7.78;5.20;;;;;;;;;;6088222;29;20131;-71
2021/04/21 02:38:25;;;;;;;;;;;;;;;;;;6088373;29;20113;-71
2021/04/21 02:41:30;;;;;;;6.68;4.65;;;;;;;;;;6088683;29;19930;-71
2021/04/21 02:44:36;;;;;;;5.90;5.28;;;;;;;;;;6091858;29;20200;-70
2021/04/21 02:47:43;;;;;;;8.35;4.90;;;;;;;;;;6088913;29;20060;-71
2021/04/21 02:50:48;;;;;;;7.10;5.03;;;;;;;;;;6090991;29;20403;-71
2021/04/21 02:53:53;;;;;;;8.65;5.20;;;;;;;;;;6089103;29;20143;-71
2021/04/21 02:56:57;;;;;;;7.88;4.50;;;;;;;;;;6091842;29;20503;-71
2021/04/21 03:00:04;;;;;;;6.13;4.90;;;;;;;;;;6090623;29;20116;-71
2021/04/21 03:03:12;;;;;;;6.57;4.97;;;;;;;;;;6090959;29;20406;-71
2021/04/21 03:06:17;;;;;;;7.03;4.70;;;;;;;;;;6086712;29;20056;-71
2021/04/21 03:09:25;;;;;;;9.02;4.95;;;;;;;;;;6089484;29;20135;-71
2021/04/21 03:12:28;;;;;;;8.70;4.97;;;;;;;;;;6082878;29;20100;-71
2021/04/21 03:15:30;;;;;;;8.10;4.93;;;;;;;;;;6084836;29;20094;-71
2021/04/21 03:18:32;;;;;;;9.18;5.13;;;;;;;;;;6097069;29;20055;-71
2021/04/21 03:21:36;;;;;;;7.38;5.13;;;;;;;;;;6099070;29;20415;-71
2021/04/21 03:24:37;;;;;;;;;;;;;;;;;;6098883;29;20091;-71
2021/04/21 03:27:42;;;;;;;6.50;4.93;;;;;;;;;;6098277;29;19923;-71
2021/04/21 03:30:43;;;;;;;8.23;5.03;;;;;;;;;;6088414;29;20061;-71
2021/04/21 03:33:47;;;;;;;6.65;4.97;;;;;;;;;;6080886;29;20144;-71
2021/04/21 03:36:48;;;;;;;8.00;4.57;;;;;;;;;;6080488;29;20062;-71
2021/04/21 03:39:51;;;;;;;6.80;4.63;;;;;;;;;;6081203;29;20060;-71
2021/04/21 03:42:52;;;;;;;7.00;5.03;;;;;;;;;;6082380;29;20460;-71
2021/04/21 03:45:54;;;;;;;6.20;5.00;;;;;;;;;;6083097;29;20052;-71
2021/04/21 03:48:57;;;;;;;7.47;5.55;;;;;;;;;;6078819;29;20045;-71
2021/04/21 03:51:58;;;;;;;7.20;5.53;;;;;;;;;;6090031;29;20135;-71
2021/04/21 03:55:00;;;;;;;6.55;5.45;;;;;;;;;;6088050;29;20063;-71
2021/04/21 03:58:03;;;;;;;9.65;5.45;;;;;;;;;;6085827;29;20084;-71
2021/04/21 04:01:07;;;;;;;6.55;5.45;;;;;;;;;;6090463;29;20060;-71
2021/04/21 04:04:10;;;;;;;6.40;4.82;;;;;;;;;;6085384;29;20187;-71
2021/04/21 04:07:14;;;;;;;8.48;5.70;;;;;;;;;;6088633;29;20562;-71
2021/04/21 04:10:15;;;;;;;13.77;5.95;;;;;;;;;;6083231;29;20056;-71
2021/04/21 04:13:17;;;;;;;10.35;6.68;;;;;;;;;;6082986;29;20068;-71
2021/04/21 04:16:19;;;;;;;7.65;5.45;;;;;;;;;;6083525;29;20096;-71
2021/04/21 04:19:21;;;;;;;6.93;5.45;;;;;;;;;;6089922;29;20055;-71
2021/04/21 04:22:23;;;;;;;8.75;5.22;;;;;;;;;;6091683;29;20058;-71
2021/04/21 04:25:24;;;;;;;6.78;5.60;;;;;;;;;;6097448;29;20054;-71
2021/04/21 04:28:27;;;;;;;7.43;5.40;;;;;;;;;;6093204;29;20048;-71
2021/04/21 04:31:29;;;;;;;7.05;5.85;;;;;;;;;;6098647;29;20071;-71
2021/04/21 04:34:32;;;;;;;9.65;6.30;;;;;;;;;;6084461;29;20080;-71
2021/04/21 04:37:38;;;;;;;9.40;6.15;;;;;;;;;;6080884;29;20057;-71
2021/04/21 04:40:39;;;;;;;9.73;5.57;;;;;;;;;;6084880;29;20056;-71
2021/04/21 04:43:40;;;;;;;7.50;6.55;;;;;;;;;;6082562;29;20491;-71
2021/04/21 04:46:45;;;;;;;10.43;6.05;;;;;;;;;;6081163;29;20044;-71
2021/04/21 04:49:49;;;;;;;9.65;6.07;;;;;;;;;;6080292;29;20052;-71
2021/04/21 04:52:51;;;;;;;8.20;6.25;;;;;;;;;;6081718;29;20187;-70
2021/04/21 04:55:52;;;;;;;7.40;6.15;;;;;;;;;;6080297;29;20136;-70
2021/04/21 04:58:55;;;;;;;9.20;6.68;;;;;;;;;;6086702;29;20060;-70
2021/04/21 05:01:58;;;;;;;10.00;6.13;;;;;;;;;;6087560;29;20143;-70
2021/04/21 05:05:03;;;;;;;9.35;6.53;;;;;;;;;;6090845;29;20059;-70
2021/04/21 05:08:07;;;;;;;11.60;6.30;;;;;;;;;;6086220;29;20488;-70
2021/04/21 05:11:09;;;;;;;11.68;6.63;;;;;;;;;;6084996;29;20513;-71
2021/04/21 05:14:11;;;;;;;10.90;6.45;;;;;;;;;;6087344;29;20163;-72
2021/04/21 05:17:56;;;;;;;7.65;6.22;;;;;;;;;;6093224;29;20146;-72
2021/04/21 05:21:35;;;;;;;9.15;6.40;;;;;;;;;;6064135;29;20086;-74
2021/04/21 05:25:02;;;;;;;10.93;6.65;;;;;;;;;;6090587;29;20044;-72
2021/04/21 05:28:39;;;;;;;11.80;7.47;;;;;;;;;;6084560;29;20412;-72
2021/04/21 05:32:18;;;;;;;8.45;6.60;;;;;;;;;;6055803;29;20048;-73
2021/04/21 05:36:04;;;;;;;10.27;7.15;;;;;;;;;;6082090;29;20163;-72
2021/04/21 05:39:41;;;;;;;9.77;6.82;;;;;;;;;;6092774;29;20072;-75
2021/04/21 05:43:24;;;;;;;11.82;6.82;;;;;;;;;;6091540;29;20056;-75
2021/04/21 05:47:10;;;;;;;11.60;7.35;;;;;;;;;;6093427;29;20135;-75
2021/04/21 05:50:39;;;;;;;11.00;6.97;;;;;;;;;;6086631;29;20048;-72
2021/04/21 05:54:17;;;;;;;9.10;6.80;;;;;;;;;;6081817;29;20111;-73
2021/04/21 05:58:10;;;;;;;8.80;6.65;;;;;;;;;;6083409;29;20052;-72
2021/04/21 06:01:22;;;;;;;10.20;6.40;;;;;;;;;;6090626;29;20082;-74
2021/04/21 06:04:24;;;;;;;8.32;7.25;;;;;;;;;;6085509;29;20131;-74
2021/04/21 06:07:25;;;;;;;10.55;6.75;;;;;;;;;;6089724;29;20044;-74
2021/04/21 06:10:28;;;;;;;12.45;7.35;;;;;;;;;;6093368;29;20080;-74
2021/04/21 06:13:30;;;;;;;10.65;7.20;;;;;;;;;;6096191;29;20138;-74
2021/04/21 06:16:34;;;;;;;11.52;7.10;;;;;;;;;;6095015;29;20079;-74
2021/04/21 06:19:35;;;;;;;12.82;6.97;;;;;;;;;;6086145;29;20087;-75
2021/04/21 06:22:36;;;;;;;10.55;7.00;;;;;;;;;;6084925;29;20155;-74
2021/04/21 06:25:38;;;;;;;10.45;6.97;;;;;;;;;;6082942;29;20146;-73
2021/04/21 06:28:39;;;;;;;14.90;7.22;;;;;;;;;;6080152;29;20575;-73
2021/04/21 06:31:43;;;;;;;13.40;7.45;;;;;;;;;;6081799;29;20091;-74
2021/04/21 06:34:45;;;;;;;10.55;6.60;;;;;;;;;;6088263;29;20081;-74
2021/04/21 06:37:47;;;;;;;7.72;6.05;;;;;;;;;;6083940;29;20044;-75
2021/04/21 06:40:53;;;;;;;10.98;5.82;;;;;;;;;;6084473;29;20063;-75
2021/04/21 06:43:56;;;;;;;9.43;5.38;;;;;;;;;;6090804;29;20060;-75
2021/04/21 06:46:58;;;;;;;10.30;5.63;;;;;;;;;;6097068;29;20159;-75
2021/04/21 06:50:01;;;;;;;7.43;5.30;;;;;;;;;;6100815;29;20403;-75
2021/04/21 06:53:06;;;;;;;8.88;6.60;;;;;;;;;;6091991;29;20131;-75
2021/04/21 06:56:07;;;;;;;8.95;5.65;;;;;;;;;;6101949;29;20095;-75
2021/04/21 06:59:18;;;;;;;8.18;6.05;;;;;;;;;;6099148;29;20614;-74
2021/04/21 07:02:34;;;;;;;10.25;6.10;;;;;;;;;;6098436;29;20071;-76
2021/04/21 07:05:36;;;;;;;9.18;5.78;;;;;;;;;;6097479;29;20064;-75
2021/04/21 07:08:38;;;;;;;6.68;5.22;;;;;;;;;;6099987;29;20056;-76
2021/04/21 07:11:40;;;;;;;6.53;5.22;;;;;;;;;;6101182;29;20503;-75
2021/04/21 07:14:41;;;;;;;9.23;5.22;;;;;;;;;;6102785;29;20147;-76
2021/04/21 07:17:43;;;;;;;5.70;4.70;;;;;;;;;;6095657;29;20044;-75
2021/04/21 07:20:44;;;;;;;9.18;5.38;;;;;;;;;;6097219;29;20084;-75
2021/04/21 07:23:47;;;;;;;6.78;4.97;;;;;;;;;;6094037;29;20410;-75
2021/04/21 07:26:49;;;;;;;7.28;5.15;;;;;;;;;;6088941;29;20135;-76
2021/04/21 07:29:50;;;;;;;10.07;4.95;;;;;;;;;;6109849;29;20507;-76
2021/04/21 07:32:52;;;;;;;8.07;4.95;;;;;;;;;;6094953;29;20127;-75
2021/04/21 07:36:06;;;;;;;7.75;4.93;;;;;;;;;;6091491;29;20067;-76
2021/04/21 07:39:09;;;;;;;5.00;4.10;;;;;;;;;;6095629;29;20147;-76
2021/04/21 07:42:16;;;;;;;8.43;4.93;;;;;;;;;;6097378;29;20056;-76
2021/04/21 07:45:20;;;;;;;11.05;5.47;;;;;;;;;;6102307;29;20048;-76
2021/04/21 07:48:47;;;;;;;9.77;4.50;;;;;;;;;;6100979;29;20048;-74
2021/04/21 07:51:48;;;;;;;11.60;5.40;;;;;;;;;;6100898;29;20131;-76
2021/04/21 07:54:49;;;;;;;8.10;4.72;;;;;;;;;;6099511;29;20087;-75
2021/04/21 07:57:59;;;;;;;8.23;4.85;;;;;;;;;;6093461;29;20143;-75
2021/04/21 08:01:01;;;;;;;6.05;4.47;;;;;;;;;;6087045;29;20188;-75
2021/04/21 08:04:17;;;;;;;4.68;3.85;;;;;;;;;;6097492;29;20503;-76
2021/04/21 08:07:40;;;;;;;6.43;4.63;;;;;;;;;;6098613;29;20139;-74
2021/04/21 08:10:48;;;;;;;7.13;4.53;;;;;;;;;;6090882;29;20064;-74
2021/04/21 08:13:49;;;;;;;7.10;4.00;;;;;;;;;;6089609;29;20140;-75
2021/04/21 08:16:58;;;;;;;6.55;3.90;;;;;;;;;;6089226;29;20123;-75
2021/04/21 08:20:00;;;;;;;9.25;5.00;;;;;;;;;;6091052;29;20063;-75
2021/04/21 08:23:03;;;;;;;5.25;4.32;;;;;;;;;;6094165;29;20384;-74
2021/04/21 08:26:04;;;;;;;10.05;4.90;;;;;;;;;;6095390;29;20115;-74
2021/04/21 08:29:09;;;;;;;5.30;4.05;;;;;;;;;;6098160;29;20059;-73
2021/04/21 08:32:11;;;;;;;6.88;4.53;;;;;;;;;;6098877;29;20052;-74
2021/04/21 08:35:15;;;;;;;7.85;4.78;;;;;;;;;;6094682;29;20138;-75
2021/04/21 08:38:16;;;;;;;6.20;5.20;;;;;;;;;;6101148;29;20573;-75
2021/04/21 08:41:19;;;;;;;11.93;5.10;;;;;;;;;;6091786;29;20067;-76
2021/04/21 08:44:20;;;;;;;6.32;4.25;;;;;;;;;;6094354;29;20051;-74
2021/04/21 08:47:24;;;;;;;6.40;4.38;;;;;;;;;;6104040;29;20142;-76
2021/04/21 08:50:26;;;;;;;;;;;;;;;;;;6100282;29;20060;-76
2021/04/21 08:53:28;;;;;;;13.27;5.95;;;;;;;;;;6100094;29;19923;-73
2021/04/21 08:56:31;;;;;;;7.15;5.15;;;;;;;;;;6106522;29;20064;-76
2021/04/21 08:59:32;;;;;;;7.22;5.15;;;;;;;;;;6073717;29;20139;-77
2021/04/21 09:02:33;;;;;;;9.02;4.88;;;;;;;;;;6096686;29;20147;-75
2021/04/21 09:05:35;;;;;;;10.05;5.28;;;;;;;;;;6091192;29;20060;-75
2021/04/21 09:08:38;;;;;;;7.85;4.50;;;;;;;;;;6083566;29;20074;-75
2021/04/21 09:11:39;;;;;;;6.55;4.40;;;;;;;;;;6084625;29;20063;-75
2021/04/21 09:14:40;;;;;;;7.05;4.18;;;;;;;;;;6089906;29;20052;-75
2021/04/21 09:17:42;;;;;;;8.05;4.68;;;;;;;;;;6085363;29;20505;-72
2021/04/21 09:20:46;;;;;;;7.88;4.32;;;;;;;;;;6082865;29;20040;-73
2021/04/21 09:23:47;;;;;;;9.20;4.07;;;;;;;;;;6084686;29;20058;-73
2021/04/21 09:26:48;;;;;;;6.53;4.18;;;;;;;;;;6082725;29;20059;-73
2021/04/21 09:29:49;;;;;;;5.68;3.95;;;;;;;;;;6089938;29;20056;-75
2021/04/21 09:32:52;;;;;;;6.60;4.53;;;;;;;;;;6094507;29;20052;-73
2021/04/21 09:35:54;;;;;;;6.45;4.22;;;;;;;;;;6093198;29;20048;-73
2021/04/21 09:38:55;;;;;;;5.00;4.30;;;;;;;;;;6096488;29;20139;-76
2021/04/21 09:42:01;;;;;;;6.53;4.20;;;;;;;;;;6099207;29;20044;-75
2021/04/21 09:45:02;;;;;;;6.75;4.70;;;;;;;;;;6091375;29;20139;-72
2021/04/21 09:48:09;;;;;;;6.05;3.80;;;;;;;;;;6095949;29;20087;-76
2021/04/21 09:51:13;;;;;;;5.50;4.90;;;;;;;;;;6091100;29;20116;-74
2021/04/21 09:54:27;;;;;;;4.97;4.10;;;;;;;;;;6093396;29;20669;-75
2021/04/21 09:57:31;;;;;;;5.13;4.55;;;;;;;;;;6091861;29;20072;-75
2021/04/21 10:00:39;;;;;;;5.15;4.55;;;;;;;;;;6088588;29;20052;-73
2021/04/21 10:03:40;;;;;;;7.22;5.80;;;;;;;;;;6066812;29;642838;-74
2021/04/21 10:06:44;;;;;;;5.60;5.00;;;;;;;;;;6092287;29;20239;-74
2021/04/21 10:09:47;;;;;;;6.07;5.47;;;;;;;;;;6095701;29;20371;-74
2021/04/21 10:12:48;;;;;;;6.50;5.30;;;;;;;;;;6094951;29;20054;-74
2021/04/21 10:15:50;;;;;;;6.75;5.57;;;;;;;;;;6091494;29;20040;-74
2021/04/21 10:18:52;;;;;;;7.18;5.70;;;;;;;;;;6082848;29;20084;-75
2021/04/21 10:21:54;;;;;;;5.88;5.00;;;;;;;;;;6090098;29;20139;-74
2021/04/21 10:24:55;;;;;;;4.97;4.43;;;;;;;;;;6093297;29;20080;-73
2021/04/21 10:27:56;;;;;;;6.00;4.55;;;;;;;;;;6098079;29;20125;-75
2021/04/21 10:30:57;;;;;;;5.90;4.68;;;;;;;;;;6097033;29;20131;-74
2021/04/21 10:33:59;;;;;;;6.68;4.10;;;;;;;;;;6093256;29;20080;-74
2021/04/21 10:37:03;;;;;;;5.68;4.35;;;;;;;;;;6090076;29;20048;-74
2021/04/21 10:40:06;;;;;;;4.53;3.90;;;;;;;;;;6098603;29;20080;-75
2021/04/21 10:43:07;;;;;;;6.47;4.15;;;;;;;;;;6093998;29;20131;-73
2021/04/21 10:46:08;;;;;;;5.38;3.90;;;;;;;;;;6097500;29;20108;-75
2021/04/21 10:49:40;;;;;;;6.95;4.65;;;;;;;;;;6098520;29;20074;-74
2021/04/21 10:52:43;;;;;;;7.03;4.60;;;;;;;;;;6098879;29;20652;-74
2021/04/21 10:55:44;;;;;;;4.50;3.95;;;;;;;;;;6093172;29;20109;-75
2021/04/21 10:58:50;;;;;;;3.90;3.55;;;;;;;;;;6095465;29;20056;-73
2021/04/21 11:01:51;;;;;;;5.05;4.10;;;;;;;;;;6096112;29;20067;-73
2021/04/21 11:05:07;;;;;;;8.45;5.35;;;;;;;;;;6096346;29;20052;-73
2021/04/21 11:08:11;;;;;;;8.35;5.10;;;;;;;;;;6093546;29;20063;-78
2021/04/21 11:11:14;;;;;;;8.32;4.18;;;;;;;;;;6084201;29;20135;-73
2021/04/21 11:14:16;;;;;;;18.45;4.22;;;;;;;;;;6088190;29;20070;-73
2021/04/21 11:17:17;;;;;;;7.20;4.25;;;;;;;;;;6083662;29;21372;-74
2021/04/21 11:20:55;;;;;;;4.53;3.80;;;;;;;;;;6058701;29;20656;-74
2021/04/21 11:24:11;;;;;;;5.65;4.18;;;;;;;;;;6089285;29;20150;-74
2021/04/21 11:27:43;;;;;;;5.90;4.53;;;;;;;;;;6085694;29;20068;-73
2021/04/21 11:30:55;;;;;;;4.95;4.45;;;;;;;;;;6093853;29;20110;-71
2021/04/21 11:33:59;;;;;;;5.18;4.60;;;;;;;;;;6102991;29;20140;-72
2021/04/21 11:37:01;;;;;;;9.48;5.45;;;;;;;;;;6094385;29;20107;-71
2021/04/21 11:40:10;;;;;;;7.85;4.85;;;;;;;;;;6091977;29;20047;-72
2021/04/21 11:43:15;;;;;;;6.15;4.60;;;;;;;;;;6091296;29;20421;-70
2021/04/21 11:46:58;;;;;;;8.43;4.22;;;;;;;;;;6096106;29;20051;-75
2021/04/21 11:50:30;;;;;;;5.88;4.68;;;;;;;;;;6096872;29;20040;-72
2021/04/21 11:53:32;;;;;;;5.10;3.28;;;;;;;;;;6097026;29;20123;-73
2021/04/21 11:56:37;;;;;;;4.70;3.78;;;;;;;;;;6099422;29;20448;-73
2021/04/21 11:59:39;;;;;;;5.65;3.80;;;;;;;;;;6106062;29;20119;-72
2021/04/21 12:02:40;;;;;;;6.40;3.90;;;;;;;;;;6099834;29;20461;-76
2021/04/21 12:05:42;;;;;;;5.20;3.78;;;;;;;;;;6101329;29;20083;-72
2021/04/21 12:08:45;;;;;;;4.43;3.58;;;;;;;;;;6099665;29;20099;-71
2021/04/21 12:11:58;;;;;;;7.43;3.80;;;;;;;;;;6097582;29;20044;-71
2021/04/21 12:15:04;;;;;;;5.50;3.20;;;;;;;;;;6088277;29;20053;-70
2021/04/21 12:18:05;;;;;;;5.40;3.38;;;;;;;;;;6091027;29;20079;-70
2021/04/21 12:21:21;;;;;;;3.88;3.47;;;;;;;;;;6096527;29;20055;-67
2021/04/21 12:24:23;;;;;;;4.03;3.60;;;;;;;;;;6091174;29;20086;-69
2021/04/21 12:27:28;;;;;;;5.13;3.22;;;;;;;;;;6086290;29;20044;-69
2021/04/21 12:30:31;;;;;;;4.53;2.97;;;;;;;;;;6087799;29;20067;-70
2021/04/21 12:33:33;;;;;;;4.25;3.08;;;;;;;;;;6093532;29;20744;-69
2021/04/21 12:36:36;;;;;;;3.47;2.85;;;;;;;;;;6092028;29;20135;-71
2021/04/21 12:39:43;;;;;;;3.55;2.67;;;;;;;;;;6095657;29;20056;-70
2021/04/21 12:42:45;;;;;;;4.35;3.35;;;;;;;;;;6090045;29;20055;-71
2021/04/21 12:45:46;;;;;;;5.30;3.97;;;;;;;;;;6080020;29;20068;-69
2021/04/21 12:48:51;;;;;;;8.18;3.35;;;;;;;;;;6085432;29;20076;-69
2021/04/21 12:51:52;;;;;;;4.53;3.40;;;;;;;;;;6081853;29;20056;-70
2021/04/21 12:54:53;;;;;;;4.22;3.28;;;;;;;;;;6080606;29;20626;-69
2021/04/21 12:57:55;;;;;;;8.35;3.85;;;;;;;;;;6076991;29;20068;-71
2021/04/21 13:01:09;;;;;;;4.43;4.00;;;;;;;;;;6083979;29;20811;-69
2021/04/21 13:04:12;;;;;;;6.05;4.25;;;;;;;;;;6083536;29;20063;-74
2021/04/21 13:07:15;;;;;;;4.65;3.47;;;;;;;;;;6080474;29;20143;-71
2021/04/21 13:10:17;;;;;;;4.70;3.78;;;;;;;;;;6090087;29;20052;-73
2021/04/21 13:13:27;;;;;;;7.47;3.83;;;;;;;;;;6081371;29;20411;-71
2021/04/21 13:16:30;;;;;;;4.68;3.72;;;;;;;;;;6084331;29;20064;-71
2021/04/21 13:19:32;;;;;;;4.40;4.00;;;;;;;;;;6082043;29;20538;-72
2021/04/21 13:22:33;;;;;;;5.82;3.45;;;;;;;;;;6084666;29;20095;-72
2021/04/21 13:25:34;;;;;;;5.15;3.58;;;;;;;;;;6089842;29;20067;-72
2021/04/21 13:28:38;;;;;;;7.80;4.32;;;;;;;;;;6090595;29;20196;-72
2021/04/21 13:31:39;;;;;;;6.50;4.30;;;;;;;;;;6094457;29;20555;-72
2021/04/21 13:34:42;;;;;;;5.60;5.00;;;;;;;;;;6096273;29;20056;-73
2021/04/21 13:37:43;;;;;;;5.03;4.22;;;;;;;;;;6093000;29;20048;-72
2021/04/21 13:40:44;;;;;;;6.00;3.83;;;;;;;;;;6094407;29;20139;-72
2021/04/21 13:43:46;;;;;;;5.32;3.33;;;;;;;;;;6097840;29;20580;-73
2021/04/21 13:46:47;;;;;;;6.40;4.22;;;;;;;;;;6096798;29;20131;-72
2021/04/21 13:49:48;;;;;;;5.43;3.67;;;;;;;;;;6097248;29;20098;-72
2021/04/21 13:52:50;;;;;;;7.25;4.47;;;;;;;;;;6084088;29;20266;-72
2021/04/21 13:55:51;;;;;;;6.30;4.45;;;;;;;;;;6081705;29;20107;-72
2021/04/21 13:58:53;;;;;;;4.78;3.55;;;;;;;;;;6078936;29;20040;-74
2021/04/21 14:01:54;;;;;;;4.63;4.05;;;;;;;;;;6080781;29;20143;-72
2021/04/21 14:04:55;;;;;;;4.32;3.92;;;;;;;;;;6082330;29;20149;-72
2021/04/21 14:07:57;;;;;;;4.30;3.90;;;;;;;;;;6086910;29;20068;-72
2021/04/21 14:10:59;;;;;;;6.65;4.47;;;;;;;;;;6085176;29;20135;-72
2021/04/21 14:14:01;;;;;;;5.23;4.40;;;;;;;;;;6087906;29;20130;-73
2021/04/21 14:17:03;;;;;;;7.18;5.03;;;;;;;;;;6079666;29;20637;-72
2021/04/21 14:20:06;;;;;;;9.00;5.00;;;;;;;;;;6077532;29;20127;-73
2021/04/21 14:23:07;;;;;;;;;;;;;;;;;;6064888;29;20044;-73
2021/04/21 14:26:08;;;;;;;5.90;5.30;;;;;;;;;;6089678;29;20640;-73
2021/04/21 14:29:10;;;;;;;6.88;5.72;;;;;;;;;;6087362;29;22114;-73
2021/04/21 14:32:11;;;;;;;11.18;5.70;;;;;;;;;;6085083;29;20391;-77
2021/04/21 14:35:14;;;;;;;8.25;5.90;;;;;;;;;;6091932;29;20044;-72
2021/04/21 14:38:15;;;;;;;7.25;5.40;;;;;;;;;;6090936;29;20459;-73
2021/04/21 14:41:16;;;;;;;7.22;6.25;;;;;;;;;;6094088;29;20048;-73
2021/04/21 14:44:19;;;;;;;7.00;6.18;;;;;;;;;;6094819;29;20052;-72
2021/04/21 14:47:20;;;;;;;;;;;;;;;;;;6092755;29;20063;-76
2021/04/21 14:50:21;;;;;;;12.23;6.50;;;;;;;;;;6090220;29;19923;-74
2021/04/21 14:53:23;;;;;;;9.73;6.28;;;;;;;;;;6094331;29;20539;-75
2021/04/21 14:56:24;;;;;;;9.45;5.50;;;;;;;;;;6092618;29;20088;-73
2021/04/21 14:59:26;;;;;;;7.43;5.78;;;;;;;;;;6084518;29;20219;-74
2021/04/21 15:02:27;;;;;;;5.68;5.07;;;;;;;;;;6085282;29;20123;-76
2021/04/21 15:05:29;;;;;;;12.60;5.32;;;;;;;;;;6096720;29;20151;-75
2021/04/21 15:08:30;;;;;;;10.82;5.72;;;;;;;;;;6100393;29;20135;-74
2021/04/21 15:11:32;;;;;;;26.15;5.88;;;;;;;;;;6098775;29;20782;-73
2021/04/21 15:14:34;;;;;;;8.45;5.40;;;;;;;;;;6097271;29;20442;-73
2021/04/21 15:17:35;;;;;;;8.55;4.32;;;;;;;;;;6095807;29;20080;-73
2021/04/21 15:20:37;;;;;;;5.47;4.97;;;;;;;;;;6096833;29;20459;-73
2021/04/21 15:23:38;;;;;;;15.65;5.20;;;;;;;;;;6095636;29;20048;-75
2021/04/21 15:26:39;;;;;;;6.25;4.40;;;;;;;;;;6072465;29;20049;-73
2021/04/21 15:29:42;;;;;;;7.10;4.97;;;;;;;;;;6085046;29;20442;-75
2021/04/21 15:32:45;;;;;;;14.82;5.45;;;;;;;;;;6089260;29;20053;-73
2021/04/21 15:35:46;;;;;;;9.60;5.05;;;;;;;;;;6094827;29;20067;-77
2021/04/21 15:38:47;;;;;;;7.50;5.30;;;;;;;;;;6087701;29;20427;-75
2021/04/21 15:41:49;;;;;;;8.55;6.15;;;;;;;;;;6091112;29;20083;-75
2021/04/21 15:44:52;;;;;;;9.43;5.80;;;;;;;;;;6091107;29;20130;-77
2021/04/21 15:47:53;;;;;;;7.22;5.57;;;;;;;;;;6097062;29;20048;-76
2021/04/21 15:50:55;;;;;;;6.95;4.20;;;;;;;;;;6097335;29;20075;-74
2021/04/21 15:53:57;;;;;;;5.45;4.68;;;;;;;;;;6101355;29;20136;-75
2021/04/21 15:57:00;;;;;;;7.63;4.32;;;;;;;;;;6094160;29;20431;-78
2021/04/21 16:00:05;;;;;;;5.17;4.37;;;;;;;;;;6098016;29;20140;-74
2021/04/21 16:03:07;;;;;;;4.82;4.38;;;;;;;;;;6084930;29;20056;-74
2021/04/21 16:06:09;;;;;;;8.75;4.50;;;;;;;;;;6090875;29;20064;-74
2021/04/21 16:09:10;;;;;;;7.43;5.03;;;;;;;;;;6095537;29;20079;-74
2021/04/21 16:12:12;;;;;;;9.63;4.90;;;;;;;;;;6092448;29;20068;-74
2021/04/21 16:15:15;;;;;;;8.63;4.43;;;;;;;;;;6097367;29;20062;-74
2021/04/21 16:18:16;;;;;;;3.80;3.30;;;;;;;;;;6094823;29;20076;-74
2021/04/21 16:21:19;;;;;;;11.07;4.38;;;;;;;;;;6093168;29;20468;-74
2021/04/21 16:24:20;;;;;;;18.38;5.35;;;;;;;;;;6094174;29;20441;-75
2021/04/21 16:27:21;;;;;;;13.35;4.32;;;;;;;;;;6092666;29;20052;-76
2021/04/21 16:30:25;;;;;;;16.38;4.70;;;;;;;;;;6093244;29;20047;-76
2021/04/21 16:33:26;;;;;;;14.45;4.07;;;;;;;;;;6099984;29;20051;-75
2021/04/21 16:36:27;;;;;;;26.05;4.70;;;;;;;;;;6096186;29;20044;-73
2021/04/21 16:39:28;;;;;;;10.48;4.55;;;;;;;;;;6095272;29;20133;-73
2021/04/21 16:42:29;;;;;;;9.85;4.30;;;;;;;;;;6085297;29;20581;-72
2021/04/21 16:45:31;;;;;;;12.90;5.38;;;;;;;;;;6086354;29;20151;-69
2021/04/21 16:48:33;;;;;;;10.50;5.50;;;;;;;;;;6083618;29;20052;-69
2021/04/21 16:51:34;;;;;;;8.23;5.13;;;;;;;;;;6089006;29;20168;-71
2021/04/21 16:54:37;;;;;;;6.35;5.10;;;;;;;;;;6087739;29;20041;-71
2021/04/21 16:57:43;;;;;;;10.05;5.10;;;;;;;;;;6089687;29;20146;-68
2021/04/21 17:00:45;;;;;;;8.55;7.38;;;;;;;;;;6089059;29;20211;-70
2021/04/21 17:03:47;;;;;;;8.95;6.72;;;;;;;;;;6084350;29;20048;-68
2021/04/21 17:06:48;;;;;;;8.05;6.72;;;;;;;;;;6073638;29;20460;-71
2021/04/21 17:09:49;;;;;;;8.90;6.85;;;;;;;;;;6090819;29;20167;-72
2021/04/21 17:12:50;;;;;;;9.07;6.70;;;;;;;;;;6088851;29;20135;-71
2021/04/21 17:15:54;;;;;;;9.43;6.13;;;;;;;;;;6091621;29;20081;-70
2021/04/21 17:18:58;;;;;;;;;;;;;;;;;;6085317;29;20060;-70
2021/04/21 17:21:59;;;;;;;9.43;5.95;;;;;;;;;;6088996;29;19923;-69
2021/04/21 17:25:06;;;;;;;10.95;7.45;;;;;;;;;;6087628;29;20111;-71
2021/04/21 17:28:09;;;;;;;9.23;5.28;;;;;;;;;;6087868;29;20151;-69
2021/04/21 17:31:11;;;;;;;4.03;3.53;;;;;;;;;;6081351;29;20059;-71
2021/04/21 17:34:12;;;;;;;4.15;3.30;;;;;;;;;;6085927;29;20502;-69
2021/04/21 17:37:13;;;;;;;4.05;3.28;;;;;;;;;;6089247;29;20178;-72
2021/04/21 17:40:17;;;;;;;7.30;3.70;;;;;;;;;;6093962;29;20096;-71
2021/04/21 17:43:19;;;;;;;6.63;4.10;;;;;;;;;;6090023;29;20048;-69
2021/04/21 17:46:20;;;;;;;7.47;4.50;;;;;;;;;;6088170;29;20064;-69
2021/04/21 17:49:21;;;;;;;5.72;4.35;;;;;;;;;;6089573;29;20106;-70
2021/04/21 17:52:23;;;;;;;4.15;3.75;;;;;;;;;;6090216;29;20525;-69
2021/04/21 17:55:24;;;;;;;5.43;4.55;;;;;;;;;;6089200;29;20128;-70
2021/04/21 17:58:26;;;;;;;5.65;4.20;;;;;;;;;;6094189;29;20083;-72
2021/04/21 18:01:28;;;;;;;5.45;4.90;;;;;;;;;;6088256;29;20068;-69
2021/04/21 18:04:29;;;;;;;5.13;4.00;;;;;;;;;;6086357;29;20127;-71
2021/04/21 18:07:31;;;;;;;5.38;3.72;;;;;;;;;;6072055;29;20053;-68
2021/04/21 18:10:32;;;;;;;4.82;4.20;;;;;;;;;;6084820;29;20476;-68
2021/04/21 18:13:33;;;;;;;6.43;4.75;;;;;;;;;;6089147;29;20790;-69
2021/04/21 18:16:35;;;;;;;5.90;5.30;;;;;;;;;;6091799;29;20072;-73
2021/04/21 18:19:36;;;;;;;6.85;4.95;;;;;;;;;;6078356;29;20143;-71
2021/04/21 18:22:38;;;;;;;6.82;4.72;;;;;;;;;;6074440;29;20059;-69
2021/04/21 18:25:39;;;;;;;6.10;4.68;;;;;;;;;;6077754;29;20139;-70
2021/04/21 18:28:41;;;;;;;5.43;3.92;;;;;;;;;;6087384;29;20063;-71
2021/04/21 18:31:43;;;;;;;8.40;4.78;;;;;;;;;;6088744;29;20052;-74